首页
METAR-TAF:

METAR-TAF

机场 :

Kapuskasing, 安大略省, 加拿大

纬度: 49-25N, 经度: 082-28W, 海拔: 227米

当前天气观测

该预报发布于1小时和0分钟前的08:00 UTC
风速11节,风向西南,有时为18节阵风
温度 14°C
湿度 94%
气压 1002 hPa
能見度: 24.1公里
少量云层高于10000英尺

METAR: CYYU 260800Z 23011G18KT 15SM FEW100 14/13 A2960 RMK AC1 SLP029 DENSITY ALT 1200FT

时间: 05:00 (09:00 UTC)

预报

该预报发布于1小时和22分钟前的07:38 UTC
预报有效从26日的 08点(UTC)到 26日的 20点(UTC)
风速8节,风向西南
能見度: 10公里
多云层高于3000英尺
短暂存在
从 26日的 08点(UTC)到 26日的 15点(UTC)
散云层高于3000英尺
几率 30%
从 26日的 08点(UTC)到 26日的 13点(UTC)
能見度: 4.8公里
多云层高于700英尺
轻雾
从 26日的 1500点(UTC)
风速10节,风向西南
能見度: 10公里
多云层高于2500英尺
几率 30%
从 26日的 18点(UTC)到 26日的 20点(UTC)
能見度: 3.2公里
多云层高于3000英尺, 积雨云.
雷暴, 雨, 轻雾

TAF: CYYU 260738Z 2608/2620 23008KT P6SM BKN030 TEMPO 2608/2615 SCT030 PROB30 2608/2613 3SM BR BKN007 FM261500 23010KT P6SM BKN025 PROB30 2618/2620 2SM TSRA BR BKN030CB RMK NXT FCST BY 261400Z

超过4000个机场的气象观测和天气预报(METAR&TAF报告)。

可查询的气象台以黄色和红色小点在地图上表示。

将鼠标移到小点上方,可查看气象台名称。

然后点击查看天气观测和预报。

如需切换地图:点击带黑十字的绿色按钮放大地图;点击带横线的绿色按钮缩小地图;或者点击绿色箭头查看邻近地区的地图。


METAR-TAF: